Archival Weather

Tokyo Intl

Tokyo, Japan (RJTT)

Report from: Friday, September 22, 2023 7:00 AM JST
Current time: Saturday, March 2, 2024 7:17 PM JST

Current weather – Weather history – Daily summaries
Weather forecast

Present weatherVCSH
Temperature26.0°C (78.8°F)
Dew point24.0°C (75.2°F)
Winds 8 kts (4.1 m/s, 9.2 mph) Vrb
Winds variableWinds variable from South (190°) to West-Southwest (250°)
Visibility6.2 mi. (10 km)
Clouds Few clouds 1,000 ft. (305 m)
Scattered clouds 9,000 ft. (2,743 m)
Ceiling: Broken clouds 14,000 ft. (4,267 m)
Altimeter29.80 in.Hg (1009 mB)
Relative humidity89 %
Density altitude1,814 ft. (553 m)
Flight conditions Visual Meteorological Conditions
Raw dataRJTT 212200Z 20008KT 190V250 9999 VCSH FEW010 SCT090 BKN140 26/24 Q1009 BECMG 30006KT
An error has occurred. This application may no longer respond until reloaded. Reload 🗙